Time;durP1;ratioP1;P1;durP2;ratioP2;P2;SDS_P1;SDS_P2;PMS_P1;PMS_P2;Temp;Humidity;BMP_temperature;BMP_pressure;BME280_temperature;BME280_humidity;BME280_pressure;Samples;Min_cycle;Max_cycle;Signal;HPM_P1;HPM_P2
2022/11/24 00:01:28;;;;;;;;;26.00;22.40;;;;;10.20;62.59;98480.69;4851653;29;8946;-74
2022/11/24 00:03:58;;;;;;;;;27.20;23.00;;;;;9.92;62.77;98485.47;4857854;29;8890;-74
2022/11/24 00:06:29;;;;;;;;;29.40;21.80;;;;;10.24;62.54;98486.72;4855774;29;8987;-74
2022/11/24 00:08:59;;;;;;;;;26.00;24.40;;;;;10.32;62.50;98490.97;4843798;29;8874;-74
2022/11/24 00:11:32;;;;;;;;;23.40;22.20;;;;;10.11;62.75;98491.25;4837233;29;8902;-74
2022/11/24 00:14:02;;;;;;;;;27.40;26.60;;;;;10.32;62.09;98497.91;4837242;29;8904;-74
2022/11/24 00:16:32;;;;;;;;;22.20;21.20;;;;;10.29;62.00;98497.94;4856387;29;9671;-76
2022/11/24 00:19:04;;;;;;;;;25.40;21.80;;;;;10.36;61.61;98493.50;4850502;29;9002;-75
2022/11/24 00:21:34;;;;;;;;;35.40;31.40;;;;;10.30;61.81;98500.56;4856464;29;8890;-75
2022/11/24 00:24:02;;;;;;;;;24.60;24.60;;;;;10.15;62.42;98508.56;4855715;29;8887;-73
2022/11/24 00:26:33;;;;;;;;;29.40;27.60;;;;;10.10;62.12;98505.19;4871199;29;8871;-73
2022/11/24 00:29:06;;;;;;;;;31.00;28.40;;;;;10.31;62.63;98504.03;4856693;29;9002;-74
2022/11/24 00:31:36;;;;;;;;;29.00;27.80;;;;;9.90;63.32;98503.72;4854333;29;8974;-75
2022/11/24 00:34:07;;;;;;;;;35.20;29.00;;;;;10.01;62.85;98508.78;4855771;29;8879;-74
2022/11/24 00:36:38;;;;;;;;;26.80;26.40;;;;;10.34;62.71;98504.84;4852896;29;8879;-74
2022/11/24 00:39:11;;;;;;;;;27.00;25.80;;;;;10.24;61.97;98510.19;4848060;29;9617;-75
2022/11/24 00:41:39;;;;;;;;;24.60;22.40;;;;;10.24;61.99;98512.78;4848451;29;8901;-74
2022/11/24 00:44:09;;;;;;;;;27.00;25.00;;;;;10.26;62.47;98516.22;4858608;29;8847;-75
2022/11/24 00:46:37;;;;;;;;;25.40;23.00;;;;;10.15;62.14;98512.06;4873030;29;8982;-74
2022/11/24 00:49:06;;;;;;;;;27.80;23.80;;;;;10.22;62.41;98510.19;4876969;29;8883;-74
2022/11/24 00:51:34;;;;;;;;;28.80;27.40;;;;;10.30;61.98;98508.38;4865902;29;8871;-75
2022/11/24 00:54:05;;;;;;;;;26.60;26.60;;;;;10.48;61.72;98512.41;4857565;29;8878;-73
2022/11/24 00:56:33;;;;;;;;;27.80;26.40;;;;;10.42;61.36;98516.88;4856799;29;8875;-74
2022/11/24 00:59:02;;;;;;;;;27.40;23.80;;;;;10.41;61.47;98517.75;4850533;29;8941;-75
2022/11/24 01:01:30;;;;;;;;;25.00;23.80;;;;;10.59;61.22;98514.84;4856288;29;8915;-74
2022/11/24 01:04:01;;;;;;;;;25.40;21.40;;;;;10.01;62.45;98524.41;4855740;29;8954;-75
2022/11/24 01:06:31;;;;;;;;;20.20;17.40;;;;;10.18;61.82;98523.31;4855548;29;8918;-73
2022/11/24 01:09:00;;;;;;;;;26.20;25.20;;;;;10.43;62.11;98522.03;4855795;29;8895;-75
2022/11/24 01:12:00;;;;;;;;;27.20;22.20;;;;;10.62;61.09;98526.97;4854269;29;9769;-74
2022/11/24 01:14:23;;;;;;;;;24.20;19.80;;;;;10.63;60.99;98528.69;4855193;29;9013;-74
2022/11/24 01:16:52;;;;;;;;;25.00;23.80;;;;;10.53;60.36;98528.84;4855998;29;8907;-75
2022/11/24 01:19:22;;;;;;;;;29.20;28.60;;;;;10.58;60.65;98530.50;4856467;29;8915;-74
2022/11/24 01:21:51;;;;;;;;;23.20;23.20;;;;;10.30;61.64;98526.63;4856155;29;8879;-74
2022/11/24 01:24:19;;;;;;;;;25.40;20.40;;;;;10.56;61.36;98522.72;4851487;29;9687;-74
2022/11/24 01:26:49;;;;;;;;;24.80;22.80;;;;;10.46;61.22;98527.22;4835871;29;8871;-74
2022/11/24 01:29:18;;;;;;;;;0.00;0.00;;;;;10.65;60.91;98521.69;4854613;29;8887;-75
2022/11/24 01:31:46;;;;;;;;;21.60;21.60;;;;;10.41;61.47;98536.84;4852840;29;8879;-74
2022/11/24 01:34:15;;;;;;;;;28.60;25.80;;;;;10.64;60.81;98533.00;4856446;29;8905;-74
2022/11/24 01:36:43;;;;;;;;;27.80;24.60;;;;;10.66;60.67;98529.50;4858128;29;9638;-74
2022/11/24 01:39:13;;;;;;;;;27.80;25.40;;;;;10.40;61.07;98542.97;4863634;29;8891;-75
2022/11/24 01:41:41;;;;;;;;;26.60;26.20;;;;;10.64;60.71;98536.50;4866480;29;8907;-74
2022/11/24 01:44:23;;;;;;;;;27.40;26.00;;;;;10.57;60.20;98533.97;4868571;29;9412;-74
2022/11/24 01:46:57;;;;;;;;;25.60;23.40;;;;;10.36;60.53;98537.81;4856228;29;9000;-74
2022/11/24 01:49:39;;;;;;;;;27.40;25.80;;;;;10.58;60.73;98535.72;4851466;29;8866;-74
2022/11/24 01:52:13;;;;;;;;;22.60;22.60;;;;;10.60;60.13;98528.72;4837162;29;8901;-74
2022/11/24 01:54:46;;;;;;;;;25.60;22.00;;;;;10.60;60.56;98537.41;4819951;29;8877;-75
2022/11/24 01:57:20;;;;;;;;;23.60;23.40;;;;;10.86;60.43;98536.94;4853388;29;8890;-74
2022/11/24 01:59:52;;;;;;;;;20.80;18.60;;;;;10.78;60.09;98538.00;4855823;29;8879;-75
2022/11/24 02:02:28;;;;;;;;;22.60;22.60;;;;;10.87;59.72;98528.25;4854637;29;8890;-73
2022/11/24 02:05:03;;;;;;;;;25.00;23.40;;;;;10.36;60.86;98541.28;4834183;29;8983;-75
2022/11/24 02:07:32;;;;;;;;;31.80;29.00;;;;;10.63;59.77;98533.91;4837595;29;8929;-75
2022/11/24 02:10:07;;;;;;;;;24.40;22.20;;;;;10.58;60.14;98530.50;4837368;29;8881;-75
2022/11/24 02:12:37;;;;;;;;;22.60;19.60;;;;;10.76;59.58;98542.38;4837773;29;8881;-74
2022/11/24 02:15:10;;;;;;;;;25.00;22.80;;;;;10.63;59.48;98537.38;4853571;29;8874;-74
2022/11/24 02:17:39;;;;;;;;;26.00;26.00;;;;;10.58;59.78;98541.78;4854589;29;9778;-75
2022/11/24 02:20:10;;;;;;;;;24.80;23.80;;;;;10.52;59.63;98544.50;4854617;29;8929;-75
2022/11/24 02:22:46;;;;;;;;;22.20;20.00;;;;;10.82;59.55;98547.47;4858145;29;8958;-74
2022/11/24 02:25:23;;;;;;;;;23.80;23.80;;;;;10.73;59.58;98545.88;4859162;29;8911;-73
2022/11/24 02:27:55;;;;;;;;;24.00;21.40;;;;;10.49;59.91;98541.94;4857288;29;9006;-75
2022/11/24 02:30:24;;;;;;;;;25.40;22.00;;;;;10.61;59.65;98546.09;4858051;29;8891;-74
2022/11/24 02:32:53;;;;;;;;;21.60;20.80;;;;;10.11;60.46;98543.38;4860257;29;8879;-73
2022/11/24 02:35:21;;;;;;;;;22.60;22.00;;;;;10.36;60.71;98543.91;4873702;29;8898;-74
2022/11/24 02:37:50;;;;;;;;;22.60;21.00;;;;;10.57;60.14;98547.91;4867854;29;8878;-75
2022/11/24 02:40:23;;;;;;;;;25.00;22.60;;;;;10.67;59.64;98541.63;4838342;29;8885;-76
2022/11/24 02:42:56;;;;;;;;;26.00;23.40;;;;;10.72;59.35;98549.41;4837857;29;8882;-77
2022/11/24 02:45:26;;;;;;;;;28.40;24.40;;;;;10.77;59.32;98557.13;4852657;29;8905;-74
2022/11/24 02:47:55;;;;;;;;;25.40;20.80;;;;;10.63;59.37;98550.41;4855370;29;9642;-73
2022/11/24 02:50:23;;;;;;;;;24.60;23.80;;;;;10.72;59.72;98554.59;4855264;29;8875;-75
2022/11/24 02:52:52;;;;;;;;;26.00;24.60;;;;;10.51;59.93;98548.88;4849219;29;8879;-74
2022/11/24 02:55:20;;;;;;;;;25.80;19.00;;;;;9.82;61.91;98555.06;4836410;29;9637;-74
2022/11/24 02:57:49;;;;;;;;;27.20;24.40;;;;;10.36;60.89;98549.13;4846091;29;8863;-74
2022/11/24 03:00:19;;;;;;;;;29.40;26.60;;;;;10.23;61.59;98544.94;4854796;29;8882;-73
2022/11/24 03:02:48;;;;;;;;;22.00;22.00;;;;;10.29;61.04;98556.13;4853367;29;8902;-74
2022/11/24 03:05:17;;;;;;;;;26.00;23.40;;;;;9.96;61.82;98547.06;4855054;29;8971;-75
2022/11/24 03:07:45;;;;;;;;;29.00;23.60;;;;;10.08;61.65;98557.31;4855675;29;8921;-74
2022/11/24 03:10:14;;;;;;;;;27.00;24.80;;;;;10.42;61.57;98553.38;4852527;29;8909;-77
2022/11/24 03:12:42;;;;;;;;;24.00;20.40;;;;;10.27;61.09;98557.91;4852596;29;8897;-74
2022/11/24 03:15:11;;;;;;;;;25.00;21.60;;;;;10.59;60.88;98556.56;4837234;29;8889;-74
2022/11/24 03:17:41;;;;;;;;;25.80;22.80;;;;;10.76;60.88;98555.41;4839813;29;10191;-74
2022/11/24 03:20:10;;;;;;;;;28.80;27.00;;;;;10.80;59.78;98559.69;4837534;29;8862;-74
2022/11/24 03:22:39;;;;;;;;;24.80;23.20;;;;;10.82;60.11;98563.13;4839199;29;8893;-74
2022/11/24 03:25:08;;;;;;;;;26.40;22.60;;;;;10.93;59.01;98556.81;4847038;29;8985;-75
2022/11/24 03:27:37;;;;;;;;;23.00;21.20;;;;;10.89;58.75;98554.31;4868434;29;8883;-74
2022/11/24 03:30:07;;;;;;;;;26.20;22.20;;;;;11.12;59.16;98554.75;4879747;29;8891;-74
2022/11/24 03:32:35;;;;;;;;;24.60;23.40;;;;;11.15;59.10;98558.19;4868690;29;9630;-75
2022/11/24 03:35:06;;;;;;;;;25.80;24.00;;;;;11.30;59.13;98547.44;4858781;29;8871;-73
2022/11/24 03:37:35;;;;;;;;;25.80;23.00;;;;;11.01;58.17;98554.06;4858266;29;8879;-75
2022/11/24 03:40:04;;;;;;;;;25.20;25.00;;;;;11.19;57.95;98549.41;4856799;29;8871;-76
2022/11/24 03:42:33;;;;;;;;;22.80;22.80;;;;;11.17;59.01;98553.78;4852339;29;9032;-74
2022/11/24 03:45:02;;;;;;;;;29.00;26.00;;;;;11.02;59.48;98544.50;4852494;29;8989;-73
2022/11/24 03:47:50;;;;;;;;;24.40;24.00;;;;;11.18;58.31;98548.53;4840135;29;8885;-74
2022/11/24 03:50:20;;;;;;;;;33.20;31.40;;;;;11.25;58.82;98554.53;4857750;29;8886;-74
2022/11/24 03:52:49;;;;;;;;;25.40;24.80;;;;;11.31;58.63;98560.47;4857198;29;8974;-74
2022/11/24 03:55:17;;;;;;;;;26.60;24.00;;;;;11.19;58.20;98567.66;4857358;29;8948;-74
2022/11/24 03:57:46;;;;;;;;;31.80;29.20;;;;;10.98;58.28;98568.91;4842539;29;8886;-75
2022/11/24 04:00:16;;;;;;;;;28.00;26.00;;;;;11.11;58.98;98575.63;4857121;29;9067;-74
2022/11/24 04:02:44;;;;;;;;;27.00;25.40;;;;;10.99;58.47;98578.47;4857357;29;8947;-75
2022/11/24 04:05:14;;;;;;;;;32.40;30.60;;;;;11.14;58.40;98577.34;4857047;29;8875;-73
2022/11/24 04:07:44;;;;;;;;;28.60;23.00;;;;;11.16;58.62;98583.41;4871379;29;9001;-74
2022/11/24 04:10:13;;;;;;;;;30.80;27.00;;;;;11.02;58.89;98581.91;4856540;29;8879;-74
2022/11/24 04:12:43;;;;;;;;;30.60;28.40;;;;;11.22;58.88;98586.72;4857179;29;8886;-75
2022/11/24 04:15:14;;;;;;;;;36.00;35.00;;;;;11.07;58.62;98587.03;4856167;29;8983;-74
2022/11/24 04:17:42;;;;;;;;;30.80;28.20;;;;;11.17;58.49;98591.19;4859277;29;8872;-77
2022/11/24 04:20:12;;;;;;;;;31.00;29.00;;;;;11.34;58.31;98588.25;4857800;29;8920;-74
2022/11/24 04:22:41;;;;;;;;;26.80;25.60;;;;;10.85;59.27;98600.44;4876955;29;8887;-74
2022/11/24 04:25:11;;;;;;;;;27.80;24.60;;;;;10.91;59.01;98597.72;4878425;29;8891;-74
2022/11/24 04:27:40;;;;;;;;;23.40;22.60;;;;;11.10;58.91;98597.41;4857404;29;9001;-74
2022/11/24 04:30:10;;;;;;;;;38.00;33.80;;;;;11.24;58.18;98604.97;4857184;29;8894;-73
2022/11/24 04:32:38;;;;;;;;;35.60;29.80;;;;;11.28;58.42;98615.31;4856773;29;8899;-75
2022/11/24 04:35:07;;;;;;;;;36.80;31.00;;;;;11.28;58.09;98614.47;4856351;29;8883;-74
2022/11/24 04:37:36;;;;;;;;;32.80;28.80;;;;;10.78;58.68;98614.47;4856485;29;8882;-76
2022/11/24 04:40:06;;;;;;;;;27.40;25.00;;;;;10.92;58.48;98611.63;4856537;29;8948;-74
2022/11/24 04:42:36;;;;;;;;;28.00;26.60;;;;;10.82;58.22;98620.50;4856266;29;8921;-74
2022/11/24 04:45:06;;;;;;;;;36.40;34.40;;;;;10.54;59.41;98626.16;4856329;29;8922;-74
2022/11/24 04:47:34;;;;;;;;;28.20;25.00;;;;;10.85;58.80;98625.66;4853127;29;9029;-74
2022/11/24 04:50:06;;;;;;;;;28.20;26.80;;;;;10.97;59.33;98633.28;4853729;29;8901;-74
2022/11/24 04:52:35;;;;;;;;;29.40;27.40;;;;;11.06;58.28;98629.66;4856436;29;8879;-74
2022/11/24 04:55:03;;;;;;;;;31.40;27.20;;;;;11.09;58.89;98635.66;4856551;29;8886;-73
2022/11/24 04:57:32;;;;;;;;;27.60;24.80;;;;;11.02;58.16;98634.06;4853927;29;8883;-74
2022/11/24 05:00:02;;;;;;;;;25.40;23.80;;;;;10.68;59.24;98639.84;4854461;29;8901;-73
2022/11/24 05:02:31;;;;;;;;;67.00;53.25;;;;;10.91;58.89;98647.28;4852611;29;8879;-74
2022/11/24 05:05:00;;;;;;;;;22.00;21.60;;;;;11.07;57.98;98644.41;4869914;29;8973;-75
2022/11/24 05:07:28;;;;;;;;;26.60;24.00;;;;;11.12;58.30;98647.81;4854908;29;8895;-74
2022/11/24 05:12:43;;;;;;;;;30.40;27.40;;;;;11.10;58.23;98653.06;4840786;29;8875;-75
2022/11/24 05:15:20;;;;;;;;;29.60;27.40;;;;;10.92;58.71;98653.34;4865260;29;8989;-73
2022/11/24 05:17:48;;;;;;;;;27.20;25.00;;;;;11.18;58.70;98658.13;4868128;29;8911;-73
2022/11/24 05:20:18;;;;;;;;;23.20;23.20;;;;;10.97;58.15;98667.19;4860903;29;8975;-74
2022/11/24 05:22:46;;;;;;;;;46.25;39.25;;;;;10.79;58.74;98673.56;4856277;29;8997;-74
2022/11/24 05:25:15;;;;;;;;;57.25;47.00;;;;;11.06;58.38;98671.41;4855813;29;8879;-74
2022/11/24 05:27:43;;;;;;;;;33.20;32.20;;;;;11.11;58.28;98673.06;4855943;29;9660;-75
2022/11/24 05:30:13;;;;;;;;;30.80;26.20;;;;;11.20;57.83;98668.56;4854267;29;8891;-74
2022/11/24 05:32:44;;;;;;;;;28.20;27.60;;;;;11.21;58.07;98671.16;4835737;29;8905;-75
2022/11/24 05:35:14;;;;;;;;;31.20;25.40;;;;;11.23;57.95;98677.19;4836797;29;9651;-74
2022/11/24 05:37:42;;;;;;;;;26.40;24.40;;;;;11.07;57.84;98676.56;4854077;29;8887;-74
2022/11/24 05:40:11;;;;;;;;;29.20;25.00;;;;;11.18;57.95;98676.41;4855119;29;8874;-74
2022/11/24 05:42:43;;;;;;;;;32.00;27.80;;;;;11.07;57.97;98684.41;4853545;29;9001;-74
2022/11/24 05:45:17;;;;;;;;;28.40;25.00;;;;;11.16;57.87;98687.78;4854006;29;8982;-74
2022/11/24 05:47:48;;;;;;;;;27.60;27.60;;;;;11.15;58.19;98684.28;4851631;29;8886;-74
2022/11/24 05:50:20;;;;;;;;;30.60;29.20;;;;;11.12;57.84;98685.19;4854977;29;8898;-74
2022/11/24 05:52:49;;;;;;;;;28.80;27.60;;;;;10.70;58.45;98685.00;4869070;29;8875;-74
2022/11/24 05:55:19;;;;;;;;;26.00;23.40;;;;;11.14;58.69;98695.63;4855447;29;9681;-74
2022/11/24 05:57:47;;;;;;;;;26.40;26.00;;;;;10.66;57.82;98687.66;4855759;29;8917;-75
2022/11/24 06:00:18;;;;;;;;;28.80;21.80;;;;;10.94;57.77;98703.75;4855395;29;8863;-74
2022/11/24 06:02:48;;;;;;;;;25.60;23.20;;;;;10.79;57.64;98706.59;4856221;29;8879;-74
2022/11/24 06:05:17;;;;;;;;;31.20;27.00;;;;;10.78;58.05;98700.53;4855481;29;8901;-76
2022/11/24 06:07:46;;;;;;;;;29.40;26.20;;;;;10.92;57.18;98709.00;4858745;29;9148;-76
2022/11/24 06:10:15;;;;;;;;;25.80;23.40;;;;;10.65;58.23;98710.28;4872288;29;8887;-75
2022/11/24 06:12:44;;;;;;;;;28.80;25.40;;;;;10.72;57.80;98714.53;4872221;29;8895;-73
2022/11/24 06:15:13;;;;;;;;;24.20;23.80;;;;;10.87;57.70;98721.25;4846525;29;8893;-75
2022/11/24 06:17:42;;;;;;;;;30.00;27.80;;;;;10.98;57.25;98721.06;4834403;29;8961;-75
2022/11/24 06:20:12;;;;;;;;;29.60;27.00;;;;;10.88;57.53;98720.34;4835639;29;8893;-76
2022/11/24 06:22:40;;;;;;;;;23.20;22.60;;;;;10.88;57.24;98722.97;4835880;29;8998;-74
2022/11/24 06:25:09;;;;;;;;;32.00;28.60;;;;;11.07;56.95;98722.69;4841381;29;8866;-75
2022/11/24 06:27:38;;;;;;;;;20.80;17.60;;;;;10.89;57.23;98726.47;4836108;29;9025;-74
2022/11/24 06:30:08;;;;;;;;;23.80;23.20;;;;;10.64;57.65;98733.75;4841250;29;8939;-74
2022/11/24 06:32:37;;;;;;;;;26.60;22.80;;;;;11.01;56.97;98731.47;4818152;29;8882;-75
2022/11/24 06:35:06;;;;;;;;;26.20;21.80;;;;;10.92;56.48;98729.00;4851561;29;8883;-75
2022/11/24 06:37:37;;;;;;;;;26.40;23.00;;;;;10.99;56.67;98735.84;4850553;29;9698;-76
2022/11/24 06:40:08;;;;;;;;;31.00;26.20;;;;;11.14;57.20;98739.13;4843940;29;8901;-75
2022/11/24 06:42:37;;;;;;;;;21.00;21.00;;;;;10.80;56.97;98737.03;4858965;29;8883;-74
2022/11/24 06:45:07;;;;;;;;;22.80;20.00;;;;;10.57;57.31;98750.34;4857427;29;8870;-76
2022/11/24 06:47:37;;;;;;;;;27.60;24.20;;;;;10.39;58.43;98761.91;4851260;29;8902;-75
2022/11/24 06:50:07;;;;;;;;;27.00;27.00;;;;;10.84;57.24;98756.97;4838056;29;8996;-75
2022/11/24 06:52:37;;;;;;;;;23.00;22.80;;;;;10.95;56.06;98756.81;4862207;29;8866;-74
2022/11/24 06:55:07;;;;;;;;;20.40;18.40;;;;;10.75;57.22;98770.13;4853530;29;8893;-74
2022/11/24 06:57:36;;;;;;;;;27.60;22.40;;;;;11.10;56.12;98777.44;4838453;29;8963;-75
2022/11/24 07:00:07;;;;;;;;;22.20;22.20;;;;;11.12;55.50;98766.09;4839453;29;9715;-74
2022/11/24 07:02:35;;;;;;;;;29.20;25.20;;;;;10.91;56.69;98776.84;4843968;29;8873;-75
2022/11/24 07:05:11;;;;;;;;;28.20;25.60;;;;;11.14;55.54;98784.34;4858395;29;8882;-74
2022/11/24 07:07:41;;;;;;;;;22.80;18.60;;;;;10.99;56.06;98779.34;4866656;29;8909;-75
2022/11/24 07:10:10;;;;;;;;;26.20;23.60;;;;;10.75;56.14;98790.97;4841251;29;8905;-74
2022/11/24 07:12:39;;;;;;;;;23.20;22.40;;;;;11.04;56.04;98798.38;4851245;29;8889;-76
2022/11/24 07:15:09;;;;;;;;;19.40;17.40;;;;;11.15;55.55;98796.47;4837589;29;8924;-73
2022/11/24 07:17:38;;;;;;;;;23.60;20.80;;;;;11.11;56.55;98798.31;4822603;29;8893;-75
2022/11/24 07:20:08;;;;;;;;;24.00;22.60;;;;;10.93;55.39;98799.41;4837999;29;9036;-75
2022/11/24 07:22:37;;;;;;;;;27.60;24.00;;;;;11.31;56.02;98799.72;4840245;29;8886;-75
2022/11/24 07:25:09;;;;;;;;;23.60;23.00;;;;;11.14;55.89;98802.59;4850233;29;8977;-77
2022/11/24 07:27:37;;;;;;;;;24.40;19.20;;;;;11.05;55.57;98797.50;4840608;29;8965;-76
2022/11/24 07:30:07;;;;;;;;;28.40;23.80;;;;;11.06;55.87;98809.69;4837807;29;8845;-75
2022/11/24 07:32:36;;;;;;;;;21.60;19.20;;;;;11.24;54.79;98800.72;4840939;29;8870;-75
2022/11/24 07:35:06;;;;;;;;;21.40;21.40;;;;;10.88;55.57;98809.03;4857467;29;8899;-75
2022/11/24 07:37:34;;;;;;;;;32.60;24.80;;;;;11.36;55.11;98804.88;4855244;29;8932;-76
2022/11/24 07:40:03;;;;;;;;;25.40;24.80;;;;;10.47;58.02;98815.66;4854255;29;8881;-77
2022/11/24 07:42:33;;;;;;;;;25.00;23.60;;;;;10.31;57.83;98819.31;4858982;29;8911;-75
2022/11/24 07:45:02;;;;;;;;;26.60;23.60;;;;;10.59;57.72;98822.47;4853644;29;8891;-75
2022/11/24 07:47:31;;;;;;;;;27.20;24.60;;;;;10.50;57.42;98819.97;4849777;29;8892;-75
2022/11/24 07:49:59;;;;;;;;;29.80;25.80;;;;;10.69;57.08;98821.47;4836301;29;8870;-74
2022/11/24 07:52:28;;;;;;;;;3.60;0.00;;;;;10.95;56.83;98820.28;4839176;29;8914;-76
2022/11/24 07:54:57;;;;;;;;;26.60;21.60;;;;;10.87;57.56;98825.59;4839139;29;8901;-75
2022/11/24 07:57:27;;;;;;;;;28.60;25.00;;;;;10.82;56.40;98830.00;4852276;29;8908;-75
2022/11/24 07:59:57;;;;;;;;;19.20;19.20;;;;;10.83;57.33;98825.63;4856647;29;9933;-76
2022/11/24 08:02:26;;;;;;;;;22.40;19.80;;;;;10.70;56.96;98823.19;4853097;29;8968;-77
2022/11/24 08:04:55;;;;;;;;;26.00;23.60;;;;;10.39;58.38;98834.88;4855019;29;8891;-74
2022/11/24 08:07:24;;;;;;;;;23.60;21.60;;;;;10.48;57.86;98829.56;4856418;29;9602;-75
2022/11/24 08:09:52;;;;;;;;;20.40;17.00;;;;;10.69;57.32;98839.72;4819845;29;8909;-75
2022/11/24 08:12:21;;;;;;;;;16.60;15.60;;;;;10.05;58.22;98836.06;4851953;29;8889;-76
2022/11/24 08:14:50;;;;;;;;;21.40;18.40;;;;;10.19;59.27;98854.16;4852811;29;8863;-76
2022/11/24 08:17:20;;;;;;;;;19.60;19.20;;;;;10.21;59.19;98847.19;4852276;29;8889;-76
2022/11/24 08:19:49;;;;;;;;;21.20;18.40;;;;;10.45;58.60;98848.72;4847184;29;8902;-75
2022/11/24 08:22:17;;;;;;;;;16.00;14.20;;;;;10.40;58.34;98855.72;4840296;29;8886;-74
2022/11/24 08:24:47;;;;;;;;;22.00;20.60;;;;;10.42;58.51;98853.09;4855279;29;8895;-73
2022/11/24 08:27:16;;;;;;;;;19.40;17.40;;;;;10.36;59.08;98851.41;4855579;29;8890;-74
2022/11/24 08:29:45;;;;;;;;;17.20;15.20;;;;;9.96;60.06;98859.56;4857203;29;9017;-75
2022/11/24 08:32:15;;;;;;;;;17.20;16.20;;;;;10.20;59.40;98860.22;4857588;29;8890;-73
2022/11/24 08:34:51;;;;;;;;;19.80;18.40;;;;;10.14;59.72;98861.16;4860688;29;8888;-76
2022/11/24 08:37:31;;;;;;;;;11.80;10.60;;;;;10.24;59.44;98859.31;4873778;29;8911;-75
2022/11/24 08:39:59;;;;;;;;;18.20;17.60;;;;;10.07;59.93;98865.56;4845951;29;8909;-75
2022/11/24 08:42:28;;;;;;;;;20.20;18.40;;;;;10.37;59.60;98862.69;4840615;29;8882;-76
2022/11/24 08:44:57;;;;;;;;;19.40;17.00;;;;;10.33;59.39;98869.69;4839571;29;8879;-74
2022/11/24 08:47:26;;;;;;;;;18.00;16.40;;;;;10.23;59.68;98866.28;4840259;29;9735;-76
2022/11/24 08:49:56;;;;;;;;;16.60;15.40;;;;;9.44;62.01;98876.50;4857547;29;8879;-76
2022/11/24 08:52:25;;;;;;;;;15.60;15.60;;;;;9.08;63.25;98883.66;4855962;29;9429;-75
2022/11/24 08:54:53;;;;;;;;;13.20;13.00;;;;;9.33;62.70;98875.69;4870348;29;8883;-76
2022/11/24 08:57:23;;;;;;;;;21.00;18.20;;;;;9.14;64.08;98894.00;4911408;29;8911;-75
2022/11/24 08:59:52;;;;;;;;;17.60;16.00;;;;;9.59;62.75;98888.53;4893938;29;9135;-75
2022/11/24 09:02:20;;;;;;;;;16.40;15.20;;;;;9.24;63.84;98887.00;4893990;29;8887;-76
2022/11/24 09:04:50;;;;;;;;;18.80;18.60;;;;;9.20;63.77;98895.72;4889140;29;8879;-76
2022/11/24 09:07:20;;;;;;;;;21.20;18.20;;;;;9.64;62.48;98888.50;4888723;29;9041;-76
2022/11/24 09:09:49;;;;;;;;;20.20;18.40;;;;;9.84;61.89;98891.81;4890287;29;8853;-76
2022/11/24 09:12:19;;;;;;;;;15.00;15.00;;;;;9.61;61.91;98878.13;4888921;29;8880;-75
2022/11/24 09:14:48;;;;;;;;;13.60;12.60;;;;;9.93;61.48;98886.53;4890085;29;8867;-75
2022/11/24 09:17:18;;;;;;;;;20.40;19.00;;;;;9.91;61.07;98880.47;4889972;29;8907;-76
2022/11/24 09:19:47;;;;;;;;;19.40;18.00;;;;;9.82;62.25;98879.69;4891439;29;9486;-75
2022/11/24 09:22:18;;;;;;;;;14.40;14.00;;;;;9.82;61.84;98885.75;4889981;29;8886;-76
2022/11/24 09:24:48;;;;;;;;;17.80;16.20;;;;;10.03;61.80;98887.31;4892874;29;9801;-76
2022/11/24 09:27:17;;;;;;;;;17.80;16.40;;;;;9.53;62.69;98876.44;4889824;29;9025;-75
2022/11/24 09:29:46;;;;;;;;;12.40;10.80;;;;;9.53;62.66;98878.19;4889547;29;8901;-76
2022/11/24 09:32:15;;;;;;;;;13.80;13.40;;;;;9.17;63.50;98896.59;4890381;29;8867;-76
2022/11/24 09:34:43;;;;;;;;;16.40;15.20;;;;;8.98;64.62;98901.03;4870495;29;9039;-74
2022/11/24 09:37:12;;;;;;;;;13.00;13.00;;;;;9.08;64.24;98895.78;4850650;29;8897;-76
2022/11/24 09:39:41;;;;;;;;;15.60;14.00;;;;;9.29;63.55;98895.66;4839082;29;8873;-76
2022/11/24 09:42:16;;;;;;;;;13.20;12.00;;;;;9.16;63.86;98892.25;4844845;29;8899;-78
2022/11/24 09:45:09;;;;;;;;;11.20;11.00;;;;;9.34;62.95;98888.69;4842231;29;8881;-77
2022/11/24 09:47:51;;;;;;;;;13.40;13.40;;;;;9.56;62.39;98879.03;4853793;29;8909;-76
2022/11/24 09:50:22;;;;;;;;;13.20;11.00;;;;;9.73;61.52;98883.22;4856564;29;8959;-75
2022/11/24 09:53:00;;;;;;;;;16.00;14.00;;;;;9.55;62.10;98886.84;4857019;29;9061;-77
2022/11/24 09:55:38;;;;;;;;;11.60;11.40;;;;;9.68;62.40;98882.41;4855182;29;8864;-79
2022/11/24 09:58:15;;;;;;;;;15.00;11.20;;;;;10.18;61.15;98873.28;4832450;29;8893;-75
2022/11/24 10:00:46;;;;;;;;;14.80;12.80;;;;;10.14;60.35;98882.84;4834023;29;8981;-77
2022/11/24 10:03:20;;;;;;;;;14.80;14.80;;;;;9.57;62.26;98890.28;4833142;29;8882;-76
2022/11/24 10:05:51;;;;;;;;;16.40;16.00;;;;;9.39;63.55;98893.00;4833554;29;8866;-76
2022/11/24 10:08:30;;;;;;;;;12.20;10.60;;;;;9.95;61.02;98886.50;4833426;29;8878;-77
2022/11/24 10:11:01;;;;;;;;;11.80;11.80;;;;;9.49;62.68;98894.66;4835798;29;8902;-78
2022/11/24 10:14:23;;;;;;;;;11.80;11.80;;;;;9.54;63.21;98892.91;4833881;29;8898;-77
2022/11/24 10:16:57;;;;;;;;;17.60;15.60;;;;;9.15;63.71;98884.50;4850157;29;8994;-76
2022/11/24 10:19:39;;;;;;;;;12.40;11.40;;;;;9.30;63.11;98892.19;4853482;29;8911;-77
2022/11/24 10:22:24;;;;;;;;;13.20;12.60;;;;;8.95;64.88;98903.63;4837256;29;8861;-77
2022/11/24 10:25:07;;;;;;;;;17.00;13.60;;;;;9.16;63.53;98891.41;4851443;29;8923;-77
2022/11/24 10:27:41;;;;;;;;;15.00;13.80;;;;;9.56;62.72;98886.84;4857410;29;8895;-77
2022/11/24 10:30:18;;;;;;;;;13.20;11.60;;;;;9.42;62.55;98893.00;4853855;29;8913;-78
2022/11/24 10:32:48;;;;;;;;;15.40;14.60;;;;;9.87;61.82;98886.59;4873713;29;8898;-76
2022/11/24 10:35:21;;;;;;;;;16.80;15.40;;;;;9.80;61.88;98891.84;4856275;29;9672;-76
2022/11/24 10:37:58;;;;;;;;;20.40;17.60;;;;;10.27;61.85;98882.75;4846511;29;8933;-78
2022/11/24 10:40:36;;;;;;;;;14.20;14.20;;;;;10.24;60.82;98881.03;4878928;29;9002;-76
2022/11/24 10:43:26;;;;;;;;;25.40;21.80;;;;;10.07;60.83;98882.94;4871005;29;8904;-76
2022/11/24 10:46:06;;;;;;;;;15.60;14.20;;;;;10.68;59.98;98884.06;4857476;29;8897;-75
2022/11/24 10:48:41;;;;;;;;;16.40;16.00;;;;;9.97;60.98;98887.38;4858410;29;9018;-76
2022/11/24 10:51:36;;;;;;;;;14.20;12.20;;;;;10.29;60.04;98891.41;4858549;29;8899;-78
2022/11/24 10:54:12;;;;;;;;;23.60;21.80;;;;;9.94;61.34;98884.78;4858529;29;8871;-77
2022/11/24 10:56:41;;;;;;;;;14.80;14.80;;;;;10.16;60.24;98895.88;4859374;29;8879;-78
2022/11/24 10:59:30;;;;;;;;;22.40;21.00;;;;;9.95;61.09;98887.38;4858811;29;8959;-78
2022/11/24 11:02:01;;;;;;;;;20.60;19.20;;;;;10.16;60.89;98888.06;4853013;29;8901;-77
2022/11/24 11:04:32;;;;;;;;;22.60;18.80;;;;;10.10;60.67;98890.72;4859116;29;9034;-77
2022/11/24 11:07:09;;;;;;;;;18.80;16.00;;;;;10.06;60.35;98892.50;4845594;29;9013;-75
2022/11/24 11:09:38;;;;;;;;;19.40;17.60;;;;;10.42;60.07;98895.66;4837521;29;9024;-77
2022/11/24 11:12:11;;;;;;;;;18.60;16.80;;;;;10.58;59.70;98890.28;4855568;29;8926;-76
2022/11/24 11:15:22;;;;;;;;;13.60;12.20;;;;;10.77;58.44;98888.31;4856520;29;8883;-77
2022/11/24 11:17:56;;;;;;;;;18.60;16.80;;;;;10.66;58.63;98893.66;4854534;29;8942;-77
2022/11/24 11:20:29;;;;;;;;;19.60;17.40;;;;;10.87;57.35;98893.41;4855205;29;8911;-76
2022/11/24 11:23:00;;;;;;;;;20.00;20.00;;;;;10.49;58.80;98901.66;4857393;29;9075;-77
2022/11/24 11:25:33;;;;;;;;;19.00;18.60;;;;;10.19;59.77;98900.19;4857968;29;8899;-77
2022/11/24 11:28:25;;;;;;;;;22.60;21.80;;;;;10.51;59.48;98902.53;4858606;29;8925;-77
2022/11/24 11:31:02;;;;;;;;;22.20;18.40;;;;;10.29;59.57;98904.44;4858358;29;8875;-78
2022/11/24 11:33:59;;;;;;;;;32.60;28.00;;;;;10.15;60.17;98904.56;4875981;29;8905;-79
2022/11/24 11:36:42;;;;;;;;;19.00;18.80;;;;;10.00;60.60;98897.78;4863304;29;9734;-78
2022/11/24 11:39:23;;;;;;;;;20.60;20.60;;;;;9.95;61.59;98903.00;4864339;29;8893;-78
2022/11/24 11:41:58;;;;;;;;;15.20;13.60;;;;;9.89;61.38;98910.00;4846665;29;9029;-78
2022/11/24 11:44:37;;;;;;;;;22.80;21.20;;;;;10.15;60.94;98913.25;4856040;29;8990;-79
2022/11/24 11:47:15;;;;;;;;;22.80;20.00;;;;;9.83;61.41;98910.94;4856714;29;8914;-76
2022/11/24 11:49:48;;;;;;;;;15.60;14.60;;;;;9.59;62.03;98911.09;4856398;29;8967;-76